Time;durP1;ratioP1;P1;durP2;ratioP2;P2;SDS_P1;SDS_P2;PMS_P1;PMS_P2;Temp;Humidity;BMP_temperature;BMP_pressure;BME280_temperature;BME280_humidity;BME280_pressure;Samples;Min_cycle;Max_cycle;Signal;HPM_P1;HPM_P2
2021/12/29 00:00:21;;;;;;;76.68;15.50;;;6.60;99.90;;;;;;5053813;28;20056;-83
2021/12/29 00:02:48;;;;;;;60.00;14.80;;;6.60;99.90;;;;;;5054265;28;20082;-83
2021/12/29 00:05:14;;;;;;;62.88;14.43;;;6.60;99.90;;;;;;5061072;28;20043;-83
2021/12/29 00:07:40;;;;;;;65.40;14.43;;;6.70;99.90;;;;;;5040452;28;20052;-83
2021/12/29 00:10:08;;;;;;;82.03;16.60;;;6.70;99.90;;;;;;5039521;28;20045;-83
2021/12/29 00:12:40;;;;;;;80.18;16.33;;;6.70;99.90;;;;;;5074916;28;20105;-82
2021/12/29 00:15:10;;;;;;;78.72;16.48;;;6.80;99.90;;;;;;5056563;28;20049;-82
2021/12/29 00:17:36;;;;;;;86.85;17.67;;;6.80;99.90;;;;;;5074591;28;20048;-82
2021/12/29 00:20:03;;;;;;;98.00;17.42;;;6.80;99.90;;;;;;5074144;28;20396;-82
2021/12/29 00:22:29;;;;;;;77.95;18.20;;;6.90;99.90;;;;;;5056144;28;20447;-82
2021/12/29 00:24:55;;;;;;;97.72;18.75;;;6.80;99.90;;;;;;5056433;28;20059;-82
2021/12/29 00:27:20;;;;;;;90.28;18.73;;;6.90;99.90;;;;;;5074573;28;20102;-82
2021/12/29 00:29:46;;;;;;;86.10;17.42;;;6.90;99.90;;;;;;5073446;28;20480;-82
2021/12/29 00:32:12;;;;;;;83.28;18.00;;;7.00;99.90;;;;;;5074521;28;20045;-82
2021/12/29 00:34:38;;;;;;;74.10;17.73;;;7.00;99.90;;;;;;5056195;28;20039;-82
2021/12/29 00:37:03;;;;;;;88.28;17.88;;;7.00;99.90;;;;;;5055527;28;20408;-82
2021/12/29 00:39:29;;;;;;;65.82;17.83;;;7.10;99.90;;;;;;5074089;28;20045;-82
2021/12/29 00:41:55;;;;;;;61.10;16.38;;;7.10;99.90;;;;;;5074306;28;20072;-82
2021/12/29 00:44:21;;;;;;;76.00;17.98;;;7.10;99.90;;;;;;5055227;28;20122;-82
2021/12/29 00:46:52;;;;;;;81.80;18.20;;;7.10;99.90;;;;;;5055798;28;20072;-82
2021/12/29 00:49:18;;;;;;;99.93;19.88;;;7.10;99.90;;;;;;5056128;28;20051;-82
2021/12/29 00:51:44;;;;;;;135.32;23.45;;;7.20;99.90;;;;;;5051609;28;20072;-82
2021/12/29 00:54:10;;;;;;;150.30;24.60;;;7.20;99.90;;;;;;5036094;28;20091;-82
2021/12/29 00:56:37;;;;;;;161.60;24.23;;;7.20;99.90;;;;;;5054060;28;20040;-83
2021/12/29 00:59:03;;;;;;;132.57;24.08;;;7.10;99.90;;;;;;5053173;28;20084;-82
2021/12/29 01:01:29;;;;;;;140.77;26.27;;;7.20;99.90;;;;;;5054026;28;20080;-82
2021/12/29 01:03:55;;;;;;;129.82;23.90;;;7.20;99.90;;;;;;5019964;28;20052;-82
2021/12/29 01:06:21;;;;;;;217.77;30.00;;;7.20;99.90;;;;;;5030603;28;20154;-83
2021/12/29 01:08:47;;;;;;;213.73;28.27;;;7.20;99.90;;;;;;5055125;28;20056;-83
2021/12/29 01:11:13;;;;;;;287.98;33.55;;;7.20;99.90;;;;;;5073589;28;20041;-82
2021/12/29 01:13:46;;;;;;;180.73;29.73;;;7.20;99.90;;;;;;5072867;28;20080;-82
2021/12/29 01:18:56;;;;;;;179.32;28.58;;;7.20;99.90;;;;;;5051187;28;20135;-82
2021/12/29 01:21:22;;;;;;;269.05;32.50;;;7.10;99.90;;;;;;5053454;28;20175;-82
2021/12/29 01:23:47;;;;;;;231.88;29.42;;;7.10;99.90;;;;;;5053725;28;20484;-82
2021/12/29 01:26:13;;;;;;;277.40;30.65;;;7.10;99.90;;;;;;5051621;28;20550;-82
2021/12/29 01:28:39;;;;;;;374.40;33.15;;;7.10;99.90;;;;;;5035594;28;20053;-82
2021/12/29 01:31:04;;;;;;;295.85;29.58;;;7.10;99.90;;;;;;5053540;28;20041;-82
2021/12/29 01:33:30;;;;;;;253.60;26.50;;;7.10;99.90;;;;;;5051339;28;20118;-83
2021/12/29 01:35:56;;;;;;;243.50;25.98;;;7.10;99.90;;;;;;5051770;28;20033;-83
2021/12/29 01:38:22;;;;;;;231.63;26.13;;;7.10;99.90;;;;;;5053188;28;20348;-83
2021/12/29 01:40:48;;;;;;;177.10;21.75;;;7.10;99.90;;;;;;5050661;28;20045;-83
2021/12/29 01:43:15;;;;;;;257.15;23.45;;;7.10;99.90;;;;;;5051998;28;20072;-83
2021/12/29 01:45:43;;;;;;;187.68;19.75;;;7.10;99.90;;;;;;5052383;28;20036;-83
2021/12/29 01:48:11;;;;;;;156.52;18.63;;;7.10;99.90;;;;;;5034752;28;20049;-83
2021/12/29 01:50:42;;;;;;;173.48;17.15;;;7.10;99.90;;;;;;5052118;28;20395;-83
2021/12/29 01:53:22;;;;;;;179.43;17.35;;;7.10;99.90;;;;;;5033249;28;20508;-83
2021/12/29 01:55:50;;;;;;;147.20;16.08;;;7.10;99.90;;;;;;5051278;28;20049;-83
2021/12/29 01:58:16;;;;;;;164.68;16.20;;;7.10;99.90;;;;;;5053255;28;20044;-82
2021/12/29 02:00:42;;;;;;;147.30;15.63;;;7.10;99.90;;;;;;5052434;28;20072;-81
2021/12/29 02:03:08;;;;;;;103.43;15.38;;;7.20;99.90;;;;;;5052898;28;20103;-82
2021/12/29 02:05:39;;;;;;;119.47;14.07;;;7.20;99.90;;;;;;5055862;28;20419;-83
2021/12/29 02:08:06;;;;;;;130.48;17.67;;;7.30;99.90;;;;;;5055403;28;20430;-82
2021/12/29 02:10:40;;;;;;;104.05;14.95;;;7.30;99.90;;;;;;5057113;28;20037;-82
2021/12/29 02:13:06;;;;;;;88.20;13.38;;;7.30;99.90;;;;;;5057187;28;20049;-82
2021/12/29 02:15:31;;;;;;;96.38;15.10;;;7.30;99.90;;;;;;5054913;28;20052;-82
2021/12/29 02:17:57;;;;;;;81.70;14.73;;;7.30;99.90;;;;;;5056803;28;20049;-81
2021/12/29 02:20:23;;;;;;;100.90;15.55;;;7.40;99.90;;;;;;5075691;28;20174;-82
2021/12/29 02:23:00;;;;;;;80.00;15.38;;;7.40;99.90;;;;;;5075992;28;20091;-82
2021/12/29 02:25:46;;;;;;;82.82;14.75;;;7.40;99.90;;;;;;5059326;28;20048;-82
2021/12/29 02:28:13;;;;;;;89.18;16.08;;;7.40;99.90;;;;;;5076354;28;20040;-82
2021/12/29 02:30:39;;;;;;;99.38;17.48;;;7.40;99.90;;;;;;5076157;28;20116;-83
2021/12/29 02:33:06;;;;;;;82.93;18.75;;;7.50;99.90;;;;;;5076750;28;20044;-83
2021/12/29 02:35:32;;;;;;;92.45;19.08;;;7.40;99.90;;;;;;5058559;28;20087;-83
2021/12/29 02:38:00;;;;;;;83.75;18.60;;;7.50;99.90;;;;;;5075806;28;20436;-82
2021/12/29 02:40:29;;;;;;;77.78;17.45;;;7.50;99.90;;;;;;5059341;28;20044;-81
2021/12/29 02:42:54;;;;;;;89.80;19.83;;;7.50;99.90;;;;;;5075854;28;20051;-82
2021/12/29 02:45:22;;;;;;;83.35;20.63;;;7.50;99.90;;;;;;5076410;28;20048;-83
2021/12/29 02:47:49;;;;;;;78.25;22.42;;;7.50;99.90;;;;;;5076149;28;20046;-83
2021/12/29 02:50:17;;;;;;;88.55;22.20;;;7.50;99.90;;;;;;5075554;28;20080;-82
2021/12/29 02:52:47;;;;;;;75.18;21.70;;;7.50;99.90;;;;;;5076054;28;20123;-83
2021/12/29 02:55:15;;;;;;;59.67;21.17;;;7.50;99.90;;;;;;5076235;28;20055;-82
2021/12/29 02:57:40;;;;;;;65.90;20.95;;;7.50;99.90;;;;;;5075273;28;20078;-83
2021/12/29 03:00:10;;;;;;;60.63;20.52;;;7.60;99.90;;;;;;5076185;28;20045;-80
2021/12/29 03:02:36;;;;;;;70.15;23.50;;;7.60;99.90;;;;;;5076253;28;20040;-82
2021/12/29 03:05:02;;;;;;;57.13;20.70;;;7.60;99.90;;;;;;5075018;28;20518;-81
2021/12/29 03:07:28;;;;;;;80.10;23.88;;;7.60;99.90;;;;;;5075924;28;20071;-82
2021/12/29 03:09:54;;;;;;;66.57;22.40;;;7.60;99.90;;;;;;5076135;28;20068;-82
2021/12/29 03:12:20;;;;;;;60.25;20.98;;;7.60;99.90;;;;;;5075158;28;20388;-83
2021/12/29 03:14:54;;;;;;;60.83;21.83;;;7.60;99.90;;;;;;5075333;28;20048;-81
2021/12/29 03:17:21;;;;;;;60.00;21.25;;;7.60;99.90;;;;;;5075341;28;20041;-82
2021/12/29 03:19:47;;;;;;;76.05;25.48;;;7.60;99.90;;;;;;5074299;28;20131;-82
2021/12/29 03:22:13;;;;;;;83.43;25.23;;;7.60;99.90;;;;;;5075658;28;20063;-83
2021/12/29 03:24:40;;;;;;;75.43;24.55;;;7.60;99.90;;;;;;5075772;28;20446;-82
2021/12/29 03:27:05;;;;;;;73.00;23.95;;;7.60;99.90;;;;;;5074888;28;20499;-82
2021/12/29 03:29:31;;;;;;;47.97;20.77;;;7.60;99.90;;;;;;5075698;28;20056;-82
2021/12/29 03:31:59;;;;;;;88.13;25.67;;;7.60;99.90;;;;;;5075504;28;20056;-82
2021/12/29 03:34:25;;;;;;;53.72;21.13;;;7.60;99.90;;;;;;5057101;28;20057;-82
2021/12/29 03:36:51;;;;;;;87.20;25.80;;;7.60;99.90;;;;;;5075125;28;20074;-83
2021/12/29 03:39:17;;;;;;;68.15;23.27;;;7.60;99.90;;;;;;5074517;28;20049;-82
2021/12/29 03:41:43;;;;;;;62.58;22.25;;;7.60;99.90;;;;;;5075515;28;20082;-82
2021/12/29 03:44:09;;;;;;;80.45;24.30;;;7.60;99.90;;;;;;5075458;28;20045;-82
2021/12/29 03:46:39;;;;;;;71.32;23.67;;;7.60;99.90;;;;;;5056651;28;20044;-82
2021/12/29 03:49:05;;;;;;;64.22;22.05;;;7.60;99.90;;;;;;5075423;28;20036;-82
2021/12/29 03:51:30;;;;;;;76.57;24.02;;;7.60;99.90;;;;;;5074785;28;20549;-82
2021/12/29 03:53:56;;;;;;;101.35;26.65;;;7.60;99.90;;;;;;5054352;28;20132;-83
2021/12/29 03:56:22;;;;;;;69.22;22.48;;;7.60;99.90;;;;;;5053914;28;20049;-83
2021/12/29 03:58:48;;;;;;;75.10;23.40;;;7.60;99.90;;;;;;5054928;28;20049;-82
2021/12/29 04:01:15;;;;;;;58.80;21.63;;;7.60;99.90;;;;;;5036407;28;20047;-83
2021/12/29 04:03:45;;;;;;;46.30;18.85;;;7.60;99.90;;;;;;5037312;28;20114;-82
2021/12/29 04:06:13;;;;;;;51.03;20.20;;;7.60;99.90;;;;;;5068437;28;20412;-81
2021/12/29 04:08:39;;;;;;;52.13;19.35;;;7.70;99.90;;;;;;5073910;28;20481;-82
2021/12/29 04:11:05;;;;;;;53.92;21.02;;;7.60;99.90;;;;;;5056974;28;20093;-82
2021/12/29 04:13:31;;;;;;;53.75;19.95;;;7.60;99.90;;;;;;5057230;28;20071;-82
2021/12/29 04:15:57;;;;;;;57.20;20.80;;;7.70;99.90;;;;;;5073859;28;20040;-82
2021/12/29 04:18:26;;;;;;;61.95;20.60;;;7.70;99.90;;;;;;5056365;28;20061;-82
2021/12/29 04:20:57;;;;;;;75.57;23.25;;;7.70;99.90;;;;;;5074398;28;20145;-83
2021/12/29 04:23:29;;;;;;;51.75;18.50;;;7.60;99.90;;;;;;5073947;28;20068;-83
2021/12/29 04:25:57;;;;;;;42.95;16.27;;;7.70;99.90;;;;;;5056635;28;20134;-82
2021/12/29 04:28:25;;;;;;;60.55;18.98;;;7.60;99.90;;;;;;5055480;28;20496;-82
2021/12/29 04:30:57;;;;;;;49.78;17.23;;;7.70;99.90;;;;;;5056780;28;20041;-83
2021/12/29 04:33:24;;;;;;;61.90;18.05;;;7.70;99.90;;;;;;5056741;28;20052;-83
2021/12/29 04:35:50;;;;;;;50.20;16.83;;;7.70;99.90;;;;;;5055858;28;20088;-82
2021/12/29 04:38:16;;;;;;;53.83;17.55;;;7.70;99.90;;;;;;5056558;28;20045;-82
2021/12/29 04:40:42;;;;;;;59.35;17.75;;;7.70;99.90;;;;;;5056455;28;20437;-82
2021/12/29 04:43:08;;;;;;;47.40;15.73;;;7.70;99.90;;;;;;5055391;28;20067;-83
2021/12/29 04:45:34;;;;;;;61.88;17.58;;;7.70;99.90;;;;;;5039991;28;20128;-83
2021/12/29 04:48:01;;;;;;;60.08;19.48;;;7.70;99.90;;;;;;5056211;28;20079;-82
2021/12/29 04:50:30;;;;;;;45.75;16.48;;;7.70;99.90;;;;;;5055234;28;20388;-82
2021/12/29 04:53:00;;;;;;;45.28;15.40;;;7.70;99.90;;;;;;5073831;28;20099;-82
2021/12/29 04:55:28;;;;;;;36.53;14.15;;;7.60;99.90;;;;;;5074118;28;20044;-82
2021/12/29 04:57:55;;;;;;;45.83;16.05;;;7.70;99.90;;;;;;5054962;28;20462;-82
2021/12/29 05:00:24;;;;;;;51.60;17.85;;;7.70;99.90;;;;;;5074034;28;20036;-82
2021/12/29 05:02:50;;;;;;;41.25;16.42;;;7.70;99.90;;;;;;5073779;28;20044;-82
2021/12/29 05:05:23;;;;;;;49.05;17.38;;;7.70;99.90;;;;;;5072800;28;20039;-82
2021/12/29 05:10:34;;;;;;;65.10;18.63;;;7.70;99.90;;;;;;5073099;28;20097;-82
2021/12/29 05:13:00;;;;;;;43.85;16.90;;;7.80;99.90;;;;;;5056081;28;20052;-82
2021/12/29 05:15:26;;;;;;;45.10;16.58;;;7.80;99.90;;;;;;5056009;28;20496;-82
2021/12/29 05:17:52;;;;;;;41.97;15.13;;;7.80;99.90;;;;;;5072944;28;20052;-82
2021/12/29 05:20:18;;;;;;;59.20;17.92;;;7.80;99.90;;;;;;5073017;28;20404;-82
2021/12/29 05:22:44;;;;;;;55.63;17.98;;;7.80;99.90;;;;;;5073600;28;20448;-82
2021/12/29 05:25:10;;;;;;;57.45;18.17;;;7.80;99.90;;;;;;5072905;28;20041;-82
2021/12/29 05:27:35;;;;;;;53.03;16.88;;;7.80;99.90;;;;;;5073482;28;20102;-83
2021/12/29 05:30:03;;;;;;;54.58;16.70;;;7.80;99.90;;;;;;5055504;28;20094;-82
2021/12/29 05:32:30;;;;;;;65.50;17.10;;;7.90;99.90;;;;;;5072650;28;20488;-82
2021/12/29 05:34:56;;;;;;;51.72;16.08;;;7.80;99.90;;;;;;5073231;28;20052;-82
2021/12/29 05:37:23;;;;;;;44.15;14.00;;;7.80;99.90;;;;;;5072293;28;20504;-82
2021/12/29 05:39:49;;;;;;;54.97;14.88;;;7.90;99.90;;;;;;5037614;28;20427;-81
2021/12/29 05:42:15;;;;;;;47.42;15.27;;;7.80;99.90;;;;;;5055391;28;20045;-82
2021/12/29 05:44:41;;;;;;;64.90;17.17;;;7.90;99.90;;;;;;5055493;28;20392;-82
2021/12/29 05:47:07;;;;;;;57.90;15.98;;;7.80;99.90;;;;;;5072475;28;20032;-82
2021/12/29 05:49:32;;;;;;;48.42;14.32;;;7.80;99.90;;;;;;5055289;28;20448;-81
2021/12/29 05:51:58;;;;;;;47.13;16.30;;;7.80;99.90;;;;;;5073083;28;20037;-81
2021/12/29 05:54:24;;;;;;;72.38;17.25;;;7.80;99.90;;;;;;5054342;28;20080;-82
2021/12/29 05:56:50;;;;;;;66.47;16.83;;;7.80;99.90;;;;;;5055193;28;20048;-82
2021/12/29 05:59:16;;;;;;;81.85;18.70;;;7.80;99.90;;;;;;5073342;28;20045;-82
2021/12/29 06:01:43;;;;;;;52.25;15.57;;;7.80;99.90;;;;;;5054428;28;20221;-82
2021/12/29 06:04:09;;;;;;;76.75;18.90;;;7.80;99.90;;;;;;5055238;28;20083;-82
2021/12/29 06:06:35;;;;;;;96.00;20.33;;;7.80;99.90;;;;;;5038279;28;20056;-83
2021/12/29 06:09:01;;;;;;;92.78;19.95;;;7.80;99.90;;;;;;5072221;28;20040;-82
2021/12/29 06:11:26;;;;;;;74.88;19.02;;;7.80;99.90;;;;;;5073204;28;20167;-82
2021/12/29 06:13:52;;;;;;;81.82;18.80;;;7.70;99.90;;;;;;5072231;28;20488;-82
2021/12/29 06:16:18;;;;;;;80.07;20.27;;;7.70;99.90;;;;;;5055056;28;20044;-82
2021/12/29 06:18:44;;;;;;;90.00;21.30;;;7.70;99.90;;;;;;5054721;28;20059;-82
2021/12/29 06:21:16;;;;;;;110.45;22.10;;;7.70;99.90;;;;;;5072382;28;20613;-82
2021/12/29 06:23:44;;;;;;;124.30;25.15;;;7.70;99.90;;;;;;5038430;28;20049;-82
2021/12/29 06:26:10;;;;;;;100.47;22.65;;;7.70;99.90;;;;;;5073406;28;20094;-82
2021/12/29 06:28:36;;;;;;;98.18;22.00;;;7.70;99.90;;;;;;5072013;28;20045;-82
2021/12/29 06:31:01;;;;;;;67.22;18.60;;;7.60;99.90;;;;;;5073035;28;20484;-82
2021/12/29 06:33:27;;;;;;;62.70;17.80;;;7.70;99.90;;;;;;5072933;28;20049;-82
2021/12/29 06:35:53;;;;;;;99.80;21.88;;;7.60;99.90;;;;;;5071636;28;20029;-82
2021/12/29 06:38:19;;;;;;;86.47;19.48;;;7.70;99.90;;;;;;5072926;28;20127;-82
2021/12/29 06:40:45;;;;;;;92.45;20.02;;;7.60;99.90;;;;;;5054506;28;20052;-81
2021/12/29 06:43:10;;;;;;;52.20;15.93;;;7.60;99.90;;;;;;5037514;28;20057;-81
2021/12/29 06:45:36;;;;;;;104.65;21.98;;;7.60;99.90;;;;;;5055217;28;20495;-82
2021/12/29 06:48:02;;;;;;;85.53;18.80;;;7.60;99.90;;;;;;5054844;28;20535;-82
2021/12/29 06:50:28;;;;;;;65.30;17.33;;;7.70;99.90;;;;;;5073677;28;20098;-81
2021/12/29 06:52:55;;;;;;;68.03;18.15;;;7.70;99.90;;;;;;5058209;28;20127;-82
2021/12/29 06:55:21;;;;;;;71.90;17.95;;;7.70;99.90;;;;;;5075807;28;20119;-82
2021/12/29 06:57:47;;;;;;;69.88;17.75;;;7.70;99.90;;;;;;5075545;28;20094;-82
2021/12/29 07:00:13;;;;;;;89.32;20.38;;;7.70;99.90;;;;;;5076299;28;20090;-82
2021/12/29 07:02:39;;;;;;;100.15;20.58;;;7.70;99.90;;;;;;5075873;28;20431;-82
2021/12/29 07:05:06;;;;;;;83.38;18.92;;;7.70;99.90;;;;;;5057002;28;20435;-82
2021/12/29 07:07:32;;;;;;;93.35;19.23;;;7.70;99.90;;;;;;5075939;28;20040;-82
2021/12/29 07:09:57;;;;;;;81.88;17.95;;;7.70;99.90;;;;;;5058344;28;20443;-82
2021/12/29 07:12:23;;;;;;;86.55;19.38;;;7.70;99.90;;;;;;5057473;28;20045;-82
2021/12/29 07:14:49;;;;;;;82.88;18.95;;;7.70;99.90;;;;;;5075940;28;20040;-82
2021/12/29 07:17:15;;;;;;;81.32;18.77;;;7.70;99.90;;;;;;5075163;28;20047;-82
2021/12/29 07:19:42;;;;;;;71.70;17.20;;;7.70;99.90;;;;;;5075412;28;20546;-82
2021/12/29 07:22:08;;;;;;;94.63;20.10;;;7.70;99.90;;;;;;5075871;28;20059;-82
2021/12/29 07:24:34;;;;;;;83.13;18.65;;;7.70;99.90;;;;;;5075058;28;20041;-82
2021/12/29 07:27:01;;;;;;;79.90;18.42;;;7.70;99.90;;;;;;5057821;28;20055;-82
2021/12/29 07:29:27;;;;;;;86.93;18.90;;;7.70;99.90;;;;;;5075715;28;20048;-82
2021/12/29 07:31:53;;;;;;;52.47;14.98;;;7.70;99.90;;;;;;5074794;28;20083;-82
2021/12/29 07:34:22;;;;;;;78.85;17.60;;;7.80;99.90;;;;;;5075340;28;20079;-82
2021/12/29 07:36:48;;;;;;;122.88;21.35;;;7.80;99.90;;;;;;5074110;28;20044;-82
2021/12/29 07:39:14;;;;;;;111.90;20.85;;;7.70;99.90;;;;;;5074559;28;20098;-82
2021/12/29 07:41:41;;;;;;;186.18;25.27;;;7.70;99.90;;;;;;5075309;28;20105;-82
2021/12/29 07:44:08;;;;;;;143.05;22.70;;;7.70;99.90;;;;;;5057608;28;20048;-82
2021/12/29 07:46:34;;;;;;;174.23;24.98;;;7.70;99.90;;;;;;5074422;28;20060;-82
2021/12/29 07:49:01;;;;;;;165.75;23.98;;;7.70;99.90;;;;;;5057144;28;20484;-82
2021/12/29 07:51:27;;;;;;;171.07;23.15;;;7.70;99.90;;;;;;5075077;28;20052;-82
2021/12/29 07:53:52;;;;;;;142.35;21.83;;;7.70;99.90;;;;;;5074165;28;20044;-82
2021/12/29 07:56:18;;;;;;;146.25;21.08;;;7.70;99.90;;;;;;5075316;28;20041;-83
2021/12/29 07:58:44;;;;;;;153.90;21.27;;;7.70;99.90;;;;;;5074995;28;20091;-82
2021/12/29 08:01:10;;;;;;;181.38;22.42;;;7.70;99.90;;;;;;5073411;28;20044;-82
2021/12/29 08:03:36;;;;;;;234.25;25.05;;;7.70;99.90;;;;;;5057293;28;20054;-82
2021/12/29 08:06:02;;;;;;;311.08;28.60;;;7.70;99.90;;;;;;5074866;28;20048;-82
2021/12/29 08:08:28;;;;;;;398.13;34.45;;;7.70;99.90;;;;;;5074168;28;20048;-81
2021/12/29 08:10:53;;;;;;;258.17;23.38;;;7.70;99.90;;;;;;5074901;28;20028;-82
2021/12/29 08:13:19;;;;;;;262.27;24.88;;;7.70;99.90;;;;;;5074684;28;20123;-82
2021/12/29 08:15:45;;;;;;;195.95;20.92;;;7.70;99.90;;;;;;5056695;28;20434;-82
2021/12/29 08:18:11;;;;;;;261.58;23.85;;;7.70;99.90;;;;;;5074793;28;20044;-82
2021/12/29 08:20:37;;;;;;;186.40;20.90;;;7.70;99.90;;;;;;5073626;28;20056;-82
2021/12/29 08:23:04;;;;;;;265.10;25.95;;;7.70;99.90;;;;;;5057033;28;20052;-82
2021/12/29 08:25:31;;;;;;;160.32;19.98;;;7.70;99.90;;;;;;5074639;28;20049;-82
2021/12/29 08:27:57;;;;;;;250.95;23.73;;;7.70;99.90;;;;;;5073830;28;20056;-82
2021/12/29 08:30:24;;;;;;;185.43;19.83;;;7.70;99.90;;;;;;5056499;28;20049;-82
2021/12/29 08:32:50;;;;;;;314.27;25.35;;;7.70;99.90;;;;;;5074600;28;20040;-82
2021/12/29 08:35:16;;;;;;;319.48;25.83;;;7.70;99.90;;;;;;5073332;28;20411;-82
2021/12/29 08:37:42;;;;;;;283.70;23.13;;;7.70;99.90;;;;;;5056427;28;20183;-81
2021/12/29 08:40:10;;;;;;;269.08;23.25;;;7.70;99.90;;;;;;5074195;28;20052;-82
2021/12/29 08:42:37;;;;;;;282.17;23.20;;;7.70;99.90;;;;;;5055608;28;20098;-82
2021/12/29 08:45:08;;;;;;;230.32;21.17;;;7.70;99.90;;;;;;5074313;28;20103;-82
2021/12/29 08:47:35;;;;;;;210.43;19.67;;;7.70;99.90;;;;;;5074314;28;20040;-82
2021/12/29 08:50:01;;;;;;;225.80;20.05;;;7.80;99.90;;;;;;5073183;28;20541;-82
2021/12/29 08:52:26;;;;;;;162.20;17.80;;;7.80;99.90;;;;;;5074058;28;20044;-82
2021/12/29 08:54:52;;;;;;;136.75;16.58;;;7.80;99.90;;;;;;5073201;28;20055;-82
2021/12/29 08:57:18;;;;;;;199.32;18.48;;;7.80;99.90;;;;;;5055167;28;20484;-82
2021/12/29 08:59:44;;;;;;;124.30;17.42;;;7.80;99.90;;;;;;5055267;28;20491;-82
2021/12/29 09:02:11;;;;;;;66.40;12.70;;;7.80;99.90;;;;;;5073579;28;20037;-82
2021/12/29 09:04:37;;;;;;;56.70;13.00;;;7.90;99.90;;;;;;5073190;28;20041;-82
2021/12/29 09:07:03;;;;;;;36.97;10.98;;;7.80;99.90;;;;;;5055641;28;20110;-82
2021/12/29 09:09:28;;;;;;;36.55;10.18;;;7.90;99.90;;;;;;5073673;28;20119;-82
2021/12/29 09:11:55;;;;;;;41.38;10.63;;;7.90;99.90;;;;;;5055200;28;20132;-82
2021/12/29 09:14:20;;;;;;;43.45;11.18;;;7.90;99.90;;;;;;5072715;28;20078;-82
2021/12/29 09:16:46;;;;;;;37.88;9.85;;;7.90;99.90;;;;;;5073018;28;20074;-82
2021/12/29 09:19:13;;;;;;;34.53;10.20;;;7.90;99.90;;;;;;5072940;28;20401;-82
2021/12/29 09:21:43;;;;;;;33.75;8.93;;;7.90;99.90;;;;;;5073526;28;20040;-82
2021/12/29 09:24:10;;;;;;;41.30;10.75;;;7.90;99.90;;;;;;5072901;28;20048;-82
2021/12/29 09:26:36;;;;;;;38.40;9.75;;;8.00;99.90;;;;;;5055532;28;20043;-82
2021/12/29 09:29:03;;;;;;;40.13;9.70;;;8.00;99.90;;;;;;5055846;28;20581;-82
2021/12/29 09:31:29;;;;;;;41.70;9.35;;;8.00;99.90;;;;;;5054760;28;20044;-82
2021/12/29 09:33:56;;;;;;;30.92;8.55;;;8.00;99.90;;;;;;5072528;28;20041;-82
2021/12/29 09:36:22;;;;;;;27.70;8.35;;;8.00;99.90;;;;;;5073225;28;20075;-82
2021/12/29 09:38:48;;;;;;;34.28;8.98;;;8.10;99.90;;;;;;5054614;28;20048;-82
2021/12/29 09:41:17;;;;;;;30.55;8.88;;;8.10;99.90;;;;;;5073421;28;20048;-82
2021/12/29 09:43:45;;;;;;;30.42;8.65;;;8.10;99.90;;;;;;5055281;28;20044;-82
2021/12/29 09:46:11;;;;;;;25.83;8.13;;;8.10;99.90;;;;;;5072705;28;20392;-82
2021/12/29 09:48:37;;;;;;;33.00;8.80;;;8.20;99.90;;;;;;5055236;28;20119;-82
2021/12/29 09:51:05;;;;;;;30.88;9.35;;;8.20;99.90;;;;;;5072719;28;20032;-82
2021/12/29 09:53:34;;;;;;;41.30;9.23;;;8.20;99.90;;;;;;5072365;28;20079;-82
2021/12/29 09:56:00;;;;;;;25.88;8.63;;;8.20;99.90;;;;;;5073155;28;20158;-82
2021/12/29 09:58:26;;;;;;;25.75;9.23;;;8.20;99.90;;;;;;5055170;28;20044;-82
2021/12/29 10:00:54;;;;;;;34.30;8.85;;;8.30;99.90;;;;;;5054740;28;20033;-82
2021/12/29 10:03:22;;;;;;;32.10;8.27;;;8.30;99.90;;;;;;5073168;28;20055;-82
2021/12/29 10:05:52;;;;;;;22.77;7.70;;;8.30;99.90;;;;;;5051882;28;20116;-82
2021/12/29 10:08:25;;;;;;;31.98;8.20;;;8.30;99.90;;;;;;5049262;28;20106;-82
2021/12/29 10:10:54;;;;;;;36.92;9.82;;;8.30;99.90;;;;;;5073132;28;20040;-82
2021/12/29 10:13:20;;;;;;;27.77;8.18;;;8.30;99.90;;;;;;5072229;28;20044;-82
2021/12/29 10:15:52;;;;;;;32.45;8.60;;;8.30;99.90;;;;;;5038446;28;20510;-82
2021/12/29 10:18:25;;;;;;;19.90;8.20;;;8.30;99.90;;;;;;5072884;28;20040;-82
2021/12/29 10:21:05;;;;;;;28.83;8.40;;;8.30;99.90;;;;;;5054174;28;20048;-82
2021/12/29 10:23:34;;;;;;;38.15;8.98;;;8.30;99.90;;;;;;5055413;28;20044;-82
2021/12/29 10:26:15;;;;;;;36.25;9.23;;;8.30;99.90;;;;;;5076005;28;20041;-82
2021/12/29 10:28:44;;;;;;;33.47;8.77;;;8.30;99.90;;;;;;5041281;28;20055;-82
2021/12/29 10:31:15;;;;;;;31.60;8.77;;;8.30;99.90;;;;;;5059312;28;20094;-82
2021/12/29 10:33:48;;;;;;;31.80;9.80;;;8.30;99.90;;;;;;5076885;28;20107;-82
2021/12/29 10:36:24;;;;;;;29.85;9.65;;;8.30;99.90;;;;;;5057869;28;20115;-82
2021/12/29 10:39:03;;;;;;;31.92;8.88;;;8.30;99.90;;;;;;5076837;28;20040;-82
2021/12/29 10:41:31;;;;;;;33.05;7.82;;;8.30;99.90;;;;;;5057920;28;20076;-82
2021/12/29 10:44:04;;;;;;;36.40;8.85;;;8.30;99.90;;;;;;5076697;28;20052;-82
2021/12/29 10:46:33;;;;;;;38.38;8.75;;;8.30;99.90;;;;;;5076883;28;20516;-82
2021/12/29 10:49:02;;;;;;;33.28;8.60;;;8.30;99.90;;;;;;5040970;28;20040;-82
2021/12/29 10:51:34;;;;;;;27.30;7.22;;;8.30;99.90;;;;;;5058475;28;20072;-82
2021/12/29 10:54:23;;;;;;;34.80;8.63;;;8.30;99.90;;;;;;5076293;28;20106;-82
2021/12/29 10:57:06;;;;;;;26.50;6.70;;;8.30;99.90;;;;;;5057655;28;20048;-82
2021/12/29 10:59:37;;;;;;;30.70;7.35;;;8.30;99.90;;;;;;5058724;28;20113;-82
2021/12/29 11:02:04;;;;;;;39.38;7.88;;;8.30;99.90;;;;;;5041812;28;20098;-82
2021/12/29 11:04:30;;;;;;;43.00;7.95;;;8.30;99.90;;;;;;5040968;28;20400;-82
2021/12/29 11:06:57;;;;;;;32.65;7.00;;;8.40;99.90;;;;;;5057327;28;20060;-82
2021/12/29 11:09:34;;;;;;;30.27;7.50;;;8.40;99.90;;;;;;5075285;28;20055;-82
2021/12/29 11:12:15;;;;;;;29.08;6.60;;;8.40;99.90;;;;;;5022101;28;20053;-82
2021/12/29 11:14:43;;;;;;;35.13;7.68;;;8.40;99.90;;;;;;5038358;28;20052;-82
2021/12/29 11:17:25;;;;;;;35.60;6.88;;;8.40;99.90;;;;;;5055340;28;20050;-82
2021/12/29 11:19:54;;;;;;;38.13;7.78;;;8.50;99.90;;;;;;5057196;28;20092;-82
2021/12/29 11:22:25;;;;;;;26.17;6.22;;;8.50;99.90;;;;;;5058082;28;20049;-82
2021/12/29 11:24:56;;;;;;;38.33;6.30;;;8.50;99.90;;;;;;5056827;28;20397;-82
2021/12/29 11:27:22;;;;;;;38.83;7.47;;;8.60;99.90;;;;;;5075798;28;20040;-82
2021/12/29 11:29:54;;;;;;;36.03;7.40;;;8.60;99.90;;;;;;5057500;28;20055;-82
2021/12/29 11:32:26;;;;;;;40.00;5.88;;;8.70;99.90;;;;;;5056967;28;20052;-82
2021/12/29 11:35:22;;;;;;;27.58;6.20;;;8.70;99.90;;;;;;5057737;28;20465;-82
2021/12/29 11:37:51;;;;;;;31.00;5.43;;;8.80;99.90;;;;;;5055914;28;20048;-82
2021/12/29 11:40:21;;;;;;;24.17;5.72;;;8.80;99.90;;;;;;5057479;28;20387;-82
2021/12/29 11:42:48;;;;;;;26.80;6.35;;;8.80;99.90;;;;;;5057719;28;20555;-82
2021/12/29 11:45:14;;;;;;;24.95;5.80;;;8.80;99.90;;;;;;5040056;28;20048;-82
2021/12/29 11:47:41;;;;;;;29.48;5.90;;;8.80;99.90;;;;;;5057508;28;20049;-82
2021/12/29 11:50:09;;;;;;;30.35;5.75;;;8.80;99.90;;;;;;5057493;28;20102;-82
2021/12/29 11:52:41;;;;;;;20.48;5.20;;;8.80;99.90;;;;;;5056433;28;20082;-82
2021/12/29 11:55:20;;;;;;;24.88;5.18;;;8.80;99.90;;;;;;5057451;28;20047;-82
2021/12/29 11:57:46;;;;;;;28.67;5.70;;;8.80;99.90;;;;;;5057300;28;20098;-83
2021/12/29 12:00:21;;;;;;;24.73;6.20;;;8.80;99.90;;;;;;5074383;28;20040;-82
2021/12/29 12:03:04;;;;;;;23.05;6.45;;;8.70;99.90;;;;;;5057580;28;20456;-83
2021/12/29 12:05:37;;;;;;;19.00;5.20;;;8.70;99.90;;;;;;5039428;28;20052;-82
2021/12/29 12:08:30;;;;;;;26.13;5.35;;;8.70;99.90;;;;;;5057036;28;20044;-82
2021/12/29 12:11:00;;;;;;;22.85;5.15;;;8.70;99.90;;;;;;5054189;28;20135;-82
2021/12/29 12:13:35;;;;;;;19.17;4.65;;;8.60;99.90;;;;;;5057176;28;20450;-82
2021/12/29 12:16:11;;;;;;;14.30;4.53;;;8.60;99.90;;;;;;5040378;28;20041;-82
2021/12/29 12:18:53;;;;;;;16.25;4.15;;;8.60;99.90;;;;;;5056697;28;20561;-82
2021/12/29 12:21:30;;;;;;;16.20;5.00;;;8.60;99.90;;;;;;5055838;28;20123;-82
2021/12/29 12:24:15;;;;;;;18.52;4.90;;;8.50;99.90;;;;;;5057057;28;20385;-82
2021/12/29 12:27:05;;;;;;;23.17;4.53;;;8.60;99.90;;;;;;5039526;28;20048;-82
2021/12/29 12:29:34;;;;;;;17.42;4.85;;;8.50;99.90;;;;;;5056607;28;20780;-82
2021/12/29 12:32:16;;;;;;;18.38;4.18;;;8.40;99.90;;;;;;5056710;28;20044;-82
2021/12/29 12:34:48;;;;;;;16.17;4.13;;;8.40;99.90;;;;;;5073656;28;20056;-82
2021/12/29 12:37:20;;;;;;;16.38;4.78;;;8.40;99.90;;;;;;5036419;28;20118;-82
2021/12/29 12:39:58;;;;;;;12.40;3.97;;;8.40;99.90;;;;;;5036481;28;20053;-82
2021/12/29 12:42:25;;;;;;;13.90;4.63;;;8.40;99.90;;;;;;5035481;28;20049;-82
2021/12/29 12:44:51;;;;;;;24.67;4.72;;;8.40;99.90;;;;;;5050587;28;20476;-82
2021/12/29 12:47:17;;;;;;;15.85;4.22;;;8.30;99.90;;;;;;5039612;28;20062;-82